Time;durP1;ratioP1;P1;durP2;ratioP2;P2;SDS_P1;SDS_P2;PMS_P1;PMS_P2;Temp;Humidity;BMP_temperature;BMP_pressure;BME280_temperature;BME280_humidity;BME280_pressure;Samples;Min_cycle;Max_cycle;Signal;HPM_P1;HPM_P2
2021/07/23 00:00:25;;;;;;;;;;;;;;;;;;2100194;27;100036;-14
2021/07/23 00:01:26;;;;;;;7.55;4.95;;;;;;;;;;2100214;27;99916;-14
2021/07/23 00:02:33;;;;;;;9.85;5.80;;;;;;;;;;2100154;27;99898;-13
2021/07/23 00:03:35;;;;;;;;;;;;;;;;;;2100646;27;99851;-14
2021/07/23 00:04:36;;;;;;;6.30;5.18;;;;;;;;;;2100407;27;99769;-17
2021/07/23 00:05:37;;;;;;;;;;;;;;;;;;2082949;28;100043;-13
2021/07/23 00:06:38;;;;;;;6.88;5.43;;;;;;;;;;2082518;27;100031;-14
2021/07/23 00:07:39;;;;;;;9.35;6.07;;;;;;;;;;2091315;27;100021;-16
2021/07/23 00:08:39;;;;;;;;;;;;;;;;;;2091360;27;99929;-16
2021/07/23 00:09:40;;;;;;;5.78;5.20;;;;;;;;;;2101782;27;100026;-15
2021/07/23 00:10:41;;;;;;;10.02;5.60;;;;;;;;;;2099385;27;99959;-15
2021/07/23 00:11:42;;;;;;;;;;;;;;;;;;2099599;27;100390;-13
2021/07/23 00:12:45;;;;;;;6.85;5.20;;;;;;;;;;2108488;27;100145;-15
2021/07/23 00:13:47;;;;;;;;;;;;;;;;;;2091233;27;99933;-16
2021/07/23 00:14:48;;;;;;;8.05;5.47;;;;;;;;;;2091058;27;100068;-16
2021/07/23 00:15:49;;;;;;;;;;;;;;;;;;2108722;27;100168;-14
2021/07/23 00:16:50;;;;;;;9.35;5.30;;;;;;;;;;2108181;27;100004;-16
2021/07/23 00:17:51;;;;;;;;;;;;;;;;;;2108686;27;99882;-12
2021/07/23 00:18:51;;;;;;;8.38;5.53;;;;;;;;;;2108540;27;99822;-12
2021/07/23 00:19:52;;;;;;;7.32;5.75;;;;;;;;;;2108370;27;99882;-13
2021/07/23 00:20:53;;;;;;;;;;;;;;;;;;2098967;27;100137;-15
2021/07/23 00:21:54;;;;;;;7.88;5.20;;;;;;;;;;2099035;27;99991;-15
2021/07/23 00:22:55;;;;;;;9.30;6.38;;;;;;;;;;2107733;27;100023;-16
2021/07/23 00:23:56;;;;;;;7.70;5.47;;;;;;;;;;2099351;27;99983;-14
2021/07/23 00:24:57;;;;;;;;;;;;;;;;;;2092867;27;100044;-21
2021/07/23 00:25:58;;;;;;;8.05;5.57;;;;;;;;;;2087736;27;100101;-15
2021/07/23 00:26:59;;;;;;;6.38;5.25;;;;;;;;;;2099004;27;99962;-14
2021/07/23 00:27:59;;;;;;;;;;;;;;;;;;2108620;27;99992;-13
2021/07/23 00:29:03;;;;;;;8.60;5.47;;;;;;;;;;2106225;27;100007;-14
2021/07/23 00:30:08;;;;;;;7.28;5.38;;;;;;;;;;2082029;28;99901;-12
2021/07/23 00:31:09;;;;;;;9.07;5.70;;;;;;;;;;2083115;27;100067;-17
2021/07/23 00:32:10;;;;;;;7.18;5.22;;;;;;;;;;2097043;27;100089;-14
2021/07/23 00:33:12;;;;;;;8.82;6.25;;;;;;;;;;2099925;27;100039;-16
2021/07/23 00:34:13;;;;;;;7.63;5.57;;;;;;;;;;2099992;27;101895;-16
2021/07/23 00:35:14;;;;;;;6.72;4.95;;;;;;;;;;2099778;27;99995;-17
2021/07/23 00:36:15;;;;;;;5.85;4.95;;;;;;;;;;2099786;27;99979;-16
2021/07/23 00:37:16;;;;;;;7.53;5.65;;;;;;;;;;2090597;27;100130;-13
2021/07/23 00:38:17;;;;;;;;;;;;;;;;;;2082236;28;100050;-12
2021/07/23 00:39:22;;;;;;;6.35;4.90;;;;;;;;;;2090781;27;99876;-14
2021/07/23 00:40:26;;;;;;;6.57;5.22;;;;;;;;;;2090279;27;100072;-15
2021/07/23 00:41:28;;;;;;;6.88;4.82;;;;;;;;;;2090696;27;100023;-13
2021/07/23 00:42:42;;;;;;;;;;;;;;;;;;2082205;27;99962;-16
2021/07/23 00:43:43;;;;;;;;;;;;;;;;;;2096080;27;99910;-16
2021/07/23 00:44:45;;;;;;;;;;;;;;;;;;2098817;27;99984;-15
2021/07/23 00:45:46;;;;;;;;;;;;;;;;;;2099685;27;100081;-16
2021/07/23 00:46:47;;;;;;;;;;;;;;;;;;2099339;27;99899;-14
2021/07/23 00:47:49;;;;;;;;;;;;;;;;;;2093633;27;99929;-17
2021/07/23 00:48:51;;;;;;;;;;;;;;;;;;2090985;27;100008;-16
2021/07/23 00:49:52;;;;;;;;;;;;;;;;;;2091163;27;99981;-16
2021/07/23 00:50:53;;;;;;;;;;;;;;;;;;2088919;27;102022;-15
2021/07/23 00:51:54;;;;;;;;;;;;;;;;;;2099461;27;100040;-12
2021/07/23 00:52:56;;;;;;;;;;;;;;;;;;2090801;27;99964;-14
2021/07/23 00:53:57;;;;;;;;;;;;;;;;;;2099498;27;100301;-16
2021/07/23 00:54:59;;;;;;;;;;;;;;;;;;2082448;28;100238;-14
2021/07/23 00:56:02;;;;;;;;;;;;;;;;;;2067071;27;100058;-14
2021/07/23 00:57:03;;;;;;;;;;;;;;;;;;2090731;27;100099;-16
2021/07/23 00:58:05;;;;;;;;;;;;;;;;;;2099236;27;99910;-13
2021/07/23 00:59:08;;;;;;;;;;;;;;;;;;2091169;27;100069;-15
2021/07/23 01:00:11;;;;;;;;;;;;;;;;;;2091248;27;99985;-13
2021/07/23 01:01:27;;;;;;;;;;;;;;;;;;2084547;27;100202;-15
2021/07/23 01:02:36;;;;;;;;;;;;;;;;;;2087108;27;100021;-16
2021/07/23 01:03:37;;;;;;;;;;;;;;;;;;2091683;27;99997;-16
2021/07/23 01:04:41;;;;;;;;;;;;;;;;;;2091555;27;99972;-13
2021/07/23 01:05:42;;;;;;;;;;;;;;;;;;2091250;27;99940;-13
2021/07/23 01:06:42;;;;;;;;;;;;;;;;;;2082486;27;100068;-18
2021/07/23 01:07:45;;;;;;;;;;;;;;;;;;2091130;27;100044;-12
2021/07/23 01:08:46;;;;;;;;;;;;;;;;;;2098982;27;99967;-13
2021/07/23 01:09:58;;;;;;;;;;;;;;;;;;2089221;27;100116;-12
2021/07/23 01:11:37;;;;;;;;;;;;;;;;;;2075790;27;100141;-14
2021/07/23 01:13:00;;;;;;;;;;;;;;;;;;2100623;27;100508;-17
2021/07/23 01:14:02;;;;;;;;;;;;;;;;;;2098887;27;100051;-15
2021/07/23 01:15:03;;;;;;;;;;;;;;;;;;2092901;27;100224;-15
2021/07/23 01:16:05;;;;;;;;;;;;;;;;;;2090651;27;99992;-15
2021/07/23 01:17:06;;;;;;;;;;;;;;;;;;2090238;27;100031;-13
2021/07/23 01:18:07;;;;;;;;;;;;;;;;;;2096035;27;100060;-16
2021/07/23 01:19:09;;;;;;;;;;;;;;;;;;2093223;27;100537;-15
2021/07/23 01:20:16;;;;;;;;;;;;;;;;;;2105981;27;99997;-15
2021/07/23 01:21:18;;;;;;;;;;;;;;;;;;2099652;27;100317;-16
2021/07/23 01:22:20;;;;;;;;;;;;;;;;;;2082359;27;100026;-15
2021/07/23 01:23:25;;;;;;;;;;;;;;;;;;2090933;27;99870;-16
2021/07/23 01:24:27;;;;;;;;;;;;;;;;;;2091172;27;99995;-17
2021/07/23 01:25:33;;;;;;;;;;;;;;;;;;2083604;27;100275;-15
2021/07/23 01:26:34;;;;;;;;;;;;;;;;;;2092273;27;100171;-15
2021/07/23 01:27:43;;;;;;;;;;;;;;;;;;2099629;27;99950;-16
2021/07/23 01:28:58;;;;;;;;;;;;;;;;;;2093906;27;100119;-16
2021/07/23 01:30:06;;;;;;;;;;;;;;;;;;2097299;27;100155;-17
2021/07/23 01:31:09;;;;;;;;;;;;;;;;;;2078056;27;100412;-14
2021/07/23 01:32:11;;;;;;;;;;;;;;;;;;2073880;27;100441;-14
2021/07/23 01:33:13;;;;;;;;;;;;;;;;;;2086418;27;99796;-14
2021/07/23 01:34:16;;;;;;;;;;;;;;;;;;2078435;28;99983;-15
2021/07/23 01:35:17;;;;;;;;;;;;;;;;;;2082600;27;100100;-25
2021/07/23 01:36:18;;;;;;;;;;;;;;;;;;2097037;27;100091;-17
2021/07/23 01:37:25;;;;;;;;;;;;;;;;;;2090941;27;100147;-15
2021/07/23 01:38:27;;;;;;;;;;;;;;;;;;2091156;27;100235;-15
2021/07/23 01:39:29;;;;;;;;;;;;;;;;;;2099113;27;100354;-14
2021/07/23 01:40:32;;;;;;;;;;;;;;;;;;2081613;27;99970;-18
2021/07/23 01:41:33;;;;;;;;;;;;;;;;;;2087469;27;100058;-17
2021/07/23 01:42:35;;;;;;;;;;;;;;;;;;2089174;27;100138;-15
2021/07/23 01:43:37;;;;;;;;;;;;;;;;;;2080491;28;100036;-18
2021/07/23 01:44:39;;;;;;;;;;;;;;;;;;2079031;27;101291;-16
2021/07/23 01:45:40;;;;;;;;;;;;;;;;;;2082869;27;100117;-14
2021/07/23 01:47:01;;;;;;;;;;;;;;;;;;2068862;28;100065;-15
2021/07/23 01:48:02;;;;;;;;;;;;;;;;;;2086277;27;100333;-13
2021/07/23 01:49:04;;;;;;;;;;;;;;;;;;2077036;28;100252;-15
2021/07/23 01:50:09;;;;;;;;;;;;;;;;;;2079653;27;100238;-17
2021/07/23 01:51:10;;;;;;;;;;;;;;;;;;2081080;28;100087;-15
2021/07/23 01:52:12;;;;;;;;;;;;;;;;;;2073261;28;100110;-15
2021/07/23 01:53:19;;;;;;;;;;;;;;;;;;2073842;28;101261;-14
2021/07/23 01:54:31;;;;;;;;;;;;;;;;;;2065099;28;100239;-17
2021/07/23 01:55:33;;;;;;;;;;;;;;;;;;2068238;27;100401;-14
2021/07/23 01:56:34;;;;;;;;;;;;;;;;;;2083899;27;100128;-17
2021/07/23 01:57:40;;;;;;;;;;;;;;;;;;2071874;28;100348;-17
2021/07/23 01:58:41;;;;;;;;;;;;;;;;;;2065323;28;99957;-15
2021/07/23 01:59:43;;;;;;;;;;;;;;;;;;2056924;28;99993;-17
2021/07/23 02:00:45;;;;;;;;;;;;;;;;;;2049127;28;100257;-15
2021/07/23 02:01:51;;;;;;;;;;;;;;;;;;2066566;28;100212;-15
2021/07/23 02:03:11;;;;;;;;;;;;;;;;;;2075912;27;100320;-18
2021/07/23 02:04:12;;;;;;;;;;;;;;;;;;2081957;28;99990;-15
2021/07/23 02:05:13;;;;;;;;;;;;;;;;;;2075559;28;100042;-18
2021/07/23 02:06:15;;;;;;;;;;;;;;;;;;2077001;28;102050;-17
2021/07/23 02:07:17;;;;;;;;;;;;;;;;;;2070813;28;100457;-15
2021/07/23 02:08:20;;;;;;;;;;;;;;;;;;2073474;28;100168;-14
2021/07/23 02:09:24;;;;;;;;;;;;;;;;;;2065598;28;99884;-15
2021/07/23 02:10:30;;;;;;;;;;;;;;;;;;2067843;28;100129;-17
2021/07/23 02:11:33;;;;;;;;;;;;;;;;;;2073329;28;100175;-17
2021/07/23 02:12:34;;;;;;;;;;;;;;;;;;2077011;27;100097;-14
2021/07/23 02:13:52;;;;;;;;;;;;;;;;;;2095768;27;99994;-17
2021/07/23 02:14:54;;;;;;;;;;;;;;;;;;2098861;27;101889;-17
2021/07/23 02:16:01;;;;;;;;;;;;;;;;;;2090102;27;100348;-14
2021/07/23 02:17:02;;;;;;;;;;;;;;;;;;2090962;27;100024;-14
2021/07/23 02:18:03;;;;;;;;;;;;;;;;;;2090445;27;100289;-16
2021/07/23 02:19:08;;;;;;;;;;;;;;;;;;2091198;27;100077;-16
2021/07/23 02:20:19;;;;;;;;;;;;;;;;;;2080753;28;100042;-15
2021/07/23 02:21:20;;;;;;;;;;;;;;;;;;2080936;28;100149;-15
2021/07/23 02:22:21;;;;;;;;;;;;;;;;;;2086623;27;99948;-16
2021/07/23 02:23:22;;;;;;;;;;;;;;;;;;2090609;27;101602;-16
2021/07/23 02:24:23;;;;;;;;;;;;;;;;;;2090590;27;99862;-18
2021/07/23 02:25:24;;;;;;;;;;;;;;;;;;2090378;27;100317;-15
2021/07/23 02:26:25;;;;;;;;;;;;;;;;;;2081637;27;99981;-17
2021/07/23 02:27:32;;;;;;;;;;;;;;;;;;2081944;28;100069;-18
2021/07/23 02:28:33;;;;;;;;;;;;;;;;;;2082094;27;100168;-16
2021/07/23 02:29:36;;;;;;;;;;;;;;;;;;2082768;27;99997;-16
2021/07/23 02:30:39;;;;;;;;;;;;;;;;;;2082372;27;101475;-16
2021/07/23 02:32:07;;;;;;;;;;;;;;;;;;2082041;27;99882;-13
2021/07/23 02:33:09;;;;;;;;;;;;;;;;;;2091496;27;100194;-17
2021/07/23 02:34:10;;;;;;;;;;;;;;;;;;2090484;27;100045;-17
2021/07/23 02:35:12;;;;;;;;;;;;;;;;;;2090274;27;100049;-18
2021/07/23 02:36:28;;;;;;;;;;;;;;;;;;2081665;27;100000;-18
2021/07/23 02:37:30;;;;;;;;;;;;;;;;;;2081967;28;100027;-16
2021/07/23 02:38:34;;;;;;;;;;;;;;;;;;2096465;27;100039;-18
2021/07/23 02:39:39;;;;;;;;;;;;;;;;;;2090227;27;100418;-18
2021/07/23 02:40:42;;;;;;;;;;;;;;;;;;2073360;28;99951;-17
2021/07/23 02:41:43;;;;;;;;;;;;;;;;;;2078727;27;100025;-17
2021/07/23 02:42:43;;;;;;;;;;;;;;;;;;2099105;27;99858;-14
2021/07/23 02:43:48;;;;;;;;;;;;;;;;;;2090398;27;99982;-15
2021/07/23 02:44:49;;;;;;;;;;;;;;;;;;2082167;27;100035;-14
2021/07/23 02:45:51;;;;;;;;;;;;;;;;;;2081726;27;99967;-18
2021/07/23 02:46:52;;;;;;;;;;;;;;;;;;2082476;27;99951;-18
2021/07/23 02:47:56;;;;;;;;;;;;;;;;;;2099307;27;100015;-18
2021/07/23 02:48:57;;;;;;;;;;;;;;;;;;2108047;27;99944;-16
2021/07/23 02:50:02;;;;;;;;;;;;;;;;;;2097168;27;99979;-17
2021/07/23 02:51:13;;;;;;;;;;;;;;;;;;2082114;27;100036;-23
2021/07/23 02:52:15;;;;;;;;;;;;;;;;;;2096581;27;100034;-16
2021/07/23 02:53:20;;;;;;;;;;;;;;;;;;2099145;27;99844;-15
2021/07/23 02:54:23;;;;;;;;;;;;;;;;;;2090769;27;100379;-15
2021/07/23 02:55:24;;;;;;;;;;;;;;;;;;2098649;27;99919;-14
2021/07/23 02:56:28;;;;;;;;;;;;;;;;;;2107837;27;99917;-17
2021/07/23 02:57:32;;;;;;;;;;;;;;;;;;2098429;27;99936;-17
2021/07/23 02:58:42;;;;;;;;;;;;;;;;;;2090508;27;100205;-16
2021/07/23 02:59:43;;;;;;;;;;;;;;;;;;2091616;27;99857;-16
2021/07/23 03:00:47;;;;;;;;;;;;;;;;;;2091117;27;99875;-15
2021/07/23 03:01:52;;;;;;;;;;;;;;;;;;2091517;27;100004;-16
2021/07/23 03:03:01;;;;;;;;;;;;;;;;;;2099935;27;100127;-15
2021/07/23 03:04:02;;;;;;;;;;;;;;;;;;2098677;27;100117;-17
2021/07/23 03:05:12;;;;;;;;;;;;;;;;;;2091740;27;99993;-14
2021/07/23 03:06:14;;;;;;;;;;;;;;;;;;2099110;27;99985;-15
2021/07/23 03:07:16;;;;;;;;;;;;;;;;;;2081702;27;99915;-14
2021/07/23 03:08:22;;;;;;;;;;;;;;;;;;2082888;27;99975;-18
2021/07/23 03:09:29;;;;;;;;;;;;;;;;;;2091890;27;99953;-17
2021/07/23 03:10:31;;;;;;;;;;;;;;;;;;2090371;27;99865;-17
2021/07/23 03:11:33;;;;;;;;;;;;;;;;;;2099169;27;99913;-15
2021/07/23 03:12:40;;;;;;;;;;;;;;;;;;2091519;27;100033;-15
2021/07/23 03:13:43;;;;;;;;;;;;;;;;;;2090690;27;99996;-17
2021/07/23 03:14:46;;;;;;;;;;;;;;;;;;2090635;27;100286;-14
2021/07/23 03:15:55;;;;;;;;;;;;;;;;;;2091833;27;99925;-15
2021/07/23 03:16:57;;;;;;;;;;;;;;;;;;2090062;27;100075;-18
2021/07/23 03:17:59;;;;;;;;;;;;;;;;;;2098684;27;99982;-15
2021/07/23 03:19:00;;;;;;;;;;;;;;;;;;2090555;27;100119;-18
2021/07/23 03:20:02;;;;;;;;;;;;;;;;;;2090649;27;100046;-17
2021/07/23 03:21:03;;;;;;;;;;;;;;;;;;2090619;27;99944;-15
2021/07/23 03:22:04;;;;;;;;;;;;;;;;;;2090767;27;99803;-18
2021/07/23 03:23:06;;;;;;;;;;;;;;;;;;2090249;27;100152;-15
2021/07/23 03:24:17;;;;;;;;;;;;;;;;;;2090547;27;99868;-17
2021/07/23 03:25:19;;;;;;;;;;;;;;;;;;2083906;27;99917;-15
2021/07/23 03:26:36;;;;;;;;;;;;;;;;;;2101298;27;99816;-14
2021/07/23 03:27:41;;;;;;;;;;;;;;;;;;2108277;27;100117;-16
2021/07/23 03:28:54;;;;;;;;;;;;;;;;;;2098649;27;99921;-14
2021/07/23 03:29:59;;;;;;;;;;;;;;;;;;2099331;27;99994;-16
2021/07/23 03:31:00;;;;;;;;;;;;;;;;;;2098605;27;100456;-16
2021/07/23 03:32:02;;;;;;;;;;;;;;;;;;2090695;27;99958;-17
2021/07/23 03:33:06;;;;;;;;;;;;;;;;;;2090844;27;99902;-17
2021/07/23 03:34:09;;;;;;;;;;;;;;;;;;2098788;27;99968;-17
2021/07/23 03:35:45;;;;;;;;;;;;;;;;;;2069618;28;100125;-17
2021/07/23 03:36:49;;;;;;;;;;;;;;;;;;2073568;28;99986;-17
2021/07/23 03:37:55;;;;;;;;;;;;;;;;;;2070971;27;100159;-17
2021/07/23 03:38:58;;;;;;;;;;;;;;;;;;2081202;27;99988;-14
2021/07/23 03:39:59;;;;;;;;;;;;;;;;;;2081331;27;100145;-16
2021/07/23 03:41:07;;;;;;;;;;;;;;;;;;2091124;27;99968;-16
2021/07/23 03:42:08;;;;;;;;;;;;;;;;;;2090076;27;100226;-17
2021/07/23 03:43:14;;;;;;;;;;;;;;;;;;2098650;27;99994;-16
2021/07/23 03:44:28;;;;;;;;;;;;;;;;;;2092277;27;100202;-16
2021/07/23 03:45:28;;;;;;;;;;;;;;;;;;2098387;27;100095;-18
2021/07/23 03:46:45;;;;;;;;;;;;;;;;;;2092611;27;99981;-15
2021/07/23 03:47:46;;;;;;;;;;;;;;;;;;2089704;27;99998;-15
2021/07/23 03:48:47;;;;;;;;;;;;;;;;;;2098805;27;100152;-16
2021/07/23 03:50:01;;;;;;;;;;;;;;;;;;2098337;27;99948;-14
2021/07/23 03:51:06;;;;;;;;;;;;;;;;;;2081855;27;99892;-15
2021/07/23 03:52:07;;;;;;;;;;;;;;;;;;2089718;27;99875;-16
2021/07/23 03:53:25;;;;;;;;;;;;;;;;;;2098630;27;99836;-15
2021/07/23 03:54:34;;;;;;;;;;;;;;;;;;2100033;27;99908;-16
2021/07/23 03:55:35;;;;;;;;;;;;;;;;;;2098868;27;100002;-15
2021/07/23 03:56:36;;;;;;;;;;;;;;;;;;2090315;27;99866;-15
2021/07/23 03:57:39;;;;;;;;;;;;;;;;;;2090359;27;100247;-17
2021/07/23 03:58:40;;;;;;;;;;;;;;;;;;2090464;27;99854;-17
2021/07/23 03:59:43;;;;;;;;;;;;;;;;;;2098869;27;100078;-16
2021/07/23 04:00:44;;;;;;;;;;;;;;;;;;2081610;28;100031;-14
2021/07/23 04:01:44;;;;;;;;;;;;;;;;;;2064799;28;99890;-16
2021/07/23 04:02:48;;;;;;;;;;;;;;;;;;2082119;27;100082;-14
2021/07/23 04:03:48;;;;;;;;;;;;;;;;;;2098802;27;99944;-13
2021/07/23 04:04:51;;;;;;;;;;;;;;;;;;2098374;27;100124;-14
2021/07/23 04:05:52;;;;;;;;;;;;;;;;;;2098132;27;100104;-16
2021/07/23 04:06:58;;;;;;;;;;;;;;;;;;2098036;27;99919;-14
2021/07/23 04:08:03;;;;;;;;;;;;;;;;;;2091351;27;100217;-13
2021/07/23 04:09:06;;;;;;;;;;;;;;;;;;2082293;27;100183;-14
2021/07/23 04:10:07;;;;;;;;;;;;;;;;;;2090432;27;100544;-13
2021/07/23 04:11:16;;;;;;;;;;;;;;;;;;2098458;27;99966;-15
2021/07/23 04:12:18;;;;;;;;;;;;;;;;;;2089531;27;99934;-16
2021/07/23 04:13:19;;;;;;;;;;;;;;;;;;2081831;27;100015;-17
2021/07/23 04:14:22;;;;;;;;;;;;;;;;;;2091174;27;99965;-13
2021/07/23 04:15:24;;;;;;;;;;;;;;;;;;2100350;27;99874;-15
2021/07/23 04:16:44;;;;;;;;;;;;;;;;;;2108860;27;99930;-16
2021/07/23 04:17:45;;;;;;;;;;;;;;;;;;2099863;27;99933;-15
2021/07/23 04:18:46;;;;;;;;;;;;;;;;;;2082836;27;99927;-13
2021/07/23 04:20:14;;;;;;;;;;;;;;;;;;2088721;27;100178;-18
2021/07/23 04:21:16;;;;;;;;;;;;;;;;;;2091358;27;100054;-15
2021/07/23 04:22:17;;;;;;;;;;;;;;;;;;2100213;27;99811;-13
2021/07/23 04:23:24;;;;;;;;;;;;;;;;;;2107896;27;99980;-18
2021/07/23 04:24:25;;;;;;;;;;;;;;;;;;2100161;27;99796;-14
2021/07/23 04:25:30;;;;;;;;;;;;;;;;;;2100606;27;100264;-16
2021/07/23 04:26:31;;;;;;;;;;;;;;;;;;2099746;27;100091;-16
2021/07/23 04:27:32;;;;;;;;;;;;;;;;;;2091686;27;100115;-17
2021/07/23 04:28:47;;;;;;;;;;;;;;;;;;2093327;27;99881;-14
2021/07/23 04:29:48;;;;;;;;;;;;;;;;;;2091784;27;100076;-13
2021/07/23 04:30:51;;;;;;;;;;;;;;;;;;2100442;27;99953;-16
2021/07/23 04:31:54;;;;;;;;;;;;;;;;;;2099718;27;100137;-17
2021/07/23 04:32:55;;;;;;;;;;;;;;;;;;2091777;27;99862;-16
2021/07/23 04:33:59;;;;;;;;;;;;;;;;;;2090842;27;99911;-17
2021/07/23 04:35:20;;;;;;;;;;;;;;;;;;2101593;27;100136;-17
2021/07/23 04:36:23;;;;;;;;;;;;;;;;;;2100122;27;100009;-14
2021/07/23 04:37:25;;;;;;;;;;;;;;;;;;2091341;27;99886;-16
2021/07/23 04:38:47;;;;;;;;;;;;;;;;;;2098058;27;99886;-13
2021/07/23 04:39:48;;;;;;;;;;;;;;;;;;2099513;27;100625;-18
2021/07/23 04:40:49;;;;;;;;;;;;;;;;;;2099625;27;100073;-14
2021/07/23 04:41:59;;;;;;;;;;;;;;;;;;2099457;27;100117;-18
2021/07/23 04:42:59;;;;;;;;;;;;;;;;;;2091013;27;100045;-13
2021/07/23 04:44:01;;;;;;;;;;;;;;;;;;2082661;27;99928;-17
2021/07/23 04:45:03;;;;;;;;;;;;;;;;;;2082761;28;99960;-18
2021/07/23 04:46:04;;;;;;;;;;;;;;;;;;2091415;27;100008;-15
2021/07/23 04:47:06;;;;;;;;;;;;;;;;;;2091459;27;99965;-14
2021/07/23 04:48:11;;;;;;;;;;;;;;;;;;2092124;27;100175;-16
2021/07/23 04:49:29;;;;;;;;;;;;;;;;;;2085296;27;99960;-17
2021/07/23 04:50:32;;;;;;;;;;;;;;;;;;2083338;27;99939;-18
2021/07/23 04:51:51;;;;;;;;;;;;;;;;;;2102502;27;99940;-15
2021/07/23 04:53:10;;;;;;;;;;;;;;;;;;2099492;27;100088;-18
2021/07/23 04:54:46;;;;;;;;;;;;;;;;;;2062031;28;100253;-17
2021/07/23 04:56:25;;;;;;;;;;;;;;;;;;2033392;28;100018;-15
2021/07/23 04:57:28;;;;;;;;;;;;;;;;;;2056817;28;99973;-16
2021/07/23 04:58:30;;;;;;;;;;;;;;;;;;2065757;28;100336;-13
2021/07/23 04:59:31;;;;;;;;;;;;;;;;;;2056904;28;100007;-14
2021/07/23 05:00:31;;;;;;;;;;;;;;;;;;2057649;28;100057;-15
2021/07/23 05:01:34;;;;;;;;;;;;;;;;;;2066009;28;99934;-16
2021/07/23 05:02:41;;;;;;;;;;;;;;;;;;2099575;27;99909;-14
2021/07/23 05:03:43;;;;;;;;;;;;;;;;;;2108837;27;100060;-17
2021/07/23 05:04:49;;;;;;;;;;;;;;;;;;2099468;27;99853;-16
2021/07/23 05:05:52;;;;;;;;;;;;;;;;;;2100350;27;99966;-18
2021/07/23 05:06:55;;;;;;;;;;;;;;;;;;2108790;27;100151;-17
2021/07/23 05:07:56;;;;;;;;;;;;;;;;;;2099029;27;99999;-16
2021/07/23 05:08:57;;;;;;;;;;;;;;;;;;2090781;27;99945;-17
2021/07/23 05:09:59;;;;;;;;;;;;;;;;;;2099964;27;99907;-16
2021/07/23 05:11:01;;;;;;;;;;;;;;;;;;2099438;27;100024;-14
2021/07/23 05:12:02;;;;;;;;;;;;;;;;;;2091188;27;99890;-17
2021/07/23 05:13:03;;;;;;;;;;;;;;;;;;2099688;27;99963;-15
2021/07/23 05:14:07;;;;;;;;;;;;;;;;;;2107982;27;99869;-16
2021/07/23 05:15:08;;;;;;;;;;;;;;;;;;2108774;27;100071;-18
2021/07/23 05:16:09;;;;;;;;;;;;;;;;;;2107906;27;100004;-18
2021/07/23 05:17:10;;;;;;;;;;;;;;;;;;2108333;27;100134;-19
2021/07/23 05:18:12;;;;;;;;;;;;;;;;;;2108254;27;99918;-16
2021/07/23 05:19:15;;;;;;;;;;;;;;;;;;2108325;27;99809;-17
2021/07/23 05:20:16;;;;;;;;;;;;;;;;;;2108911;27;99877;-15
2021/07/23 05:21:16;;;;;;;;;;;;;;;;;;2108863;27;99853;-15
2021/07/23 05:22:17;;;;;;;;;;;;;;;;;;2108738;27;99802;-15
2021/07/23 05:23:18;;;;;;;;;;;;;;;;;;2108387;27;100694;-16
2021/07/23 05:24:19;;;;;;;;;;;;;;;;;;2108750;27;99966;-17
2021/07/23 05:25:19;;;;;;;;;;;;;;;;;;2108854;27;99868;-14
2021/07/23 05:26:20;;;;;;;;;;;;;;;;;;2108760;27;99957;-14
2021/07/23 05:27:22;;;;;;;;;;;;;;;;;;2108369;27;99870;-17
2021/07/23 05:28:23;;;;;;;;;;;;;;;;;;2099435;27;99950;-14
2021/07/23 05:29:24;;;;;;;;;;;;;;;;;;2090854;27;101158;-15
2021/07/23 05:30:25;;;;;;;;;;;;;;;;;;2099418;27;99826;-17
2021/07/23 05:31:26;;;;;;;;;;;;;;;;;;2098777;27;99931;-14
2021/07/23 05:32:26;;;;;;;;;;;;;;;;;;2099511;27;99840;-17
2021/07/23 05:33:27;;;;;;;;;;;;;;;;;;2099740;27;100271;-15
2021/07/23 05:34:28;;;;;;;;;;;;;;;;;;2099527;27;100049;-15
2021/07/23 05:35:29;;;;;;;;;;;;;;;;;;2108503;27;99940;-16
2021/07/23 05:36:30;;;;;;;;;;;;;;;;;;2108526;27;100123;-16
2021/07/23 05:37:33;;;;;;;;;;;;;;;;;;2108284;27;99969;-14
2021/07/23 05:38:34;;;;;;;;;;;;;;;;;;2108057;27;100018;-18
2021/07/23 05:39:35;;;;;;;;;;;;;;;;;;2108852;27;99976;-15
2021/07/23 05:40:35;;;;;;;;;;;;;;;;;;2108541;27;99861;-15
2021/07/23 05:41:36;;;;;;;;;;;;;;;;;;2108905;27;99821;-14
2021/07/23 05:42:37;;;;;;;;;;;;;;;;;;2108704;27;99774;-14
2021/07/23 05:43:38;;;;;;;;;;;;;;;;;;2108625;27;100232;-14
2021/07/23 05:44:38;;;;;;;;;;;;;;;;;;2108715;27;100038;-18
2021/07/23 05:45:40;;;;;;;;;;;;;;;;;;2108712;27;99996;-14
2021/07/23 05:46:40;;;;;;;;;;;;;;;;;;2108407;27;99908;-25
2021/07/23 05:47:41;;;;;;;;;;;;;;;;;;2108743;27;99888;-15
2021/07/23 05:48:42;;;;;;;;;;;;;;;;;;2108164;27;99921;-17
2021/07/23 05:49:43;;;;;;;;;;;;;;;;;;2108602;27;100064;-13
2021/07/23 05:50:43;;;;;;;;;;;;;;;;;;2108539;27;99860;-16
2021/07/23 05:51:44;;;;;;;;;;;;;;;;;;2108690;27;99809;-15
2021/07/23 05:52:45;;;;;;;;;;;;;;;;;;2098764;27;100018;-16
2021/07/23 05:53:45;;;;;;;;;;;;;;;;;;2099165;27;99880;-17
2021/07/23 05:54:46;;;;;;;;;;;;;;;;;;2099555;27;100146;-16
2021/07/23 05:55:47;;;;;;;;;;;;;;;;;;2099882;27;99811;-14
2021/07/23 05:56:48;;;;;;;;;;;;;;;;;;2108257;27;100077;-17
2021/07/23 05:57:49;;;;;;;;;;;;;;;;;;2098966;27;99962;-17
2021/07/23 05:58:50;;;;;;;;;;;;;;;;;;2099030;27;99932;-16
2021/07/23 05:59:51;;;;;;;;;;;;;;;;;;2108583;27;100001;-16
2021/07/23 06:00:52;;;;;;;;;;;;;;;;;;2108412;27;99950;-18
2021/07/23 06:01:53;;;;;;;;;;;;;;;;;;2108579;27;99953;-14
2021/07/23 06:02:54;;;;;;;;;;;;;;;;;;2099351;27;100056;-16
2021/07/23 06:03:55;;;;;;;;;;;;;;;;;;2099477;27;99779;-16
2021/07/23 06:04:55;;;;;;;;;;;;;;;;;;2108528;27;99790;-17
2021/07/23 06:05:56;;;;;;;;;;;;;;;;;;2108400;27;99915;-18
2021/07/23 06:06:57;;;;;;;;;;;;;;;;;;2108331;27;99818;-14
2021/07/23 06:07:58;;;;;;;;;;;;;;;;;;2108288;27;99757;-15
2021/07/23 06:08:59;;;;;;;;;;;;;;;;;;2098055;27;99831;-15
2021/07/23 06:10:00;;;;;;;;;;;;;;;;;;2099207;27;99996;-15
2021/07/23 06:11:07;;;;;;;;;;;;;;;;;;2108340;27;99976;-18
2021/07/23 06:12:19;;;;;;;;;;;;;;;;;;2107700;27;100002;-19
2021/07/23 06:13:19;;;;;;;;;;;;;;;;;;2099363;27;100057;-18
2021/07/23 06:14:20;;;;;;;;;;;;;;;;;;2099413;27;99927;-15
2021/07/23 06:15:21;;;;;;;;;;;;;;;;;;2108225;27;99900;-17
2021/07/23 06:16:21;;;;;;;;;;;;;;;;;;2108367;27;99978;-15
2021/07/23 06:17:22;;;;;;;;;;;;;;;;;;2098683;27;100074;-17
2021/07/23 06:18:23;;;;;;;;;;;;;;;;;;2098762;27;100012;-13
2021/07/23 06:19:24;;;;;;;;;;;;;;;;;;2099538;27;99759;-17
2021/07/23 06:20:25;;;;;;;;;;;;;;;;;;2099730;27;100250;-14
2021/07/23 06:21:26;;;;;;;;;;;;;;;;;;2099722;27;99828;-15
2021/07/23 06:22:27;;;;;;;;;;;;;;;;;;2099595;27;99885;-15
2021/07/23 06:23:29;;;;;;;;;;;;;;;;;;2098891;27;99932;-18
2021/07/23 06:24:30;;;;;;;;;;;;;;;;;;2099075;27;100010;-16
2021/07/23 06:25:30;;;;;;;;;;;;;;;;;;2099891;27;100013;-16
2021/07/23 06:26:31;;;;;;;;;;;;;;;;;;2099401;27;99992;-16
2021/07/23 06:27:32;;;;;;;;;;;;;;;;;;2099031;27;99940;-15
2021/07/23 06:28:33;;;;;;;;;;;;;;;;;;2098711;27;100102;-16
2021/07/23 06:29:33;;;;;;;;;;;;;;;;;;2099210;27;99862;-15
2021/07/23 06:30:34;;;;;;;;;;;;;;;;;;2098798;27;100128;-14
2021/07/23 06:31:35;;;;;;;;;;;;;;;;;;2090696;27;99818;-16
2021/07/23 06:32:36;;;;;;;;;;;;;;;;;;2098984;27;99786;-13
2021/07/23 06:33:37;;;;;;;;;;;;;;;;;;2099864;27;99834;-17
2021/07/23 06:34:38;;;;;;;;;;;;;;;;;;2099598;27;99765;-14
2021/07/23 06:35:39;;;;;;;;;;;;;;;;;;2100075;27;100007;-15
2021/07/23 06:36:40;;;;;;;;;;;;;;;;;;2099210;27;99804;-15
2021/07/23 06:37:41;;;;;;;;;;;;;;;;;;2099366;27;100056;-14
2021/07/23 06:38:41;;;;;;;;;;;;;;;;;;2099119;27;100030;-18
2021/07/23 06:39:42;;;;;;;;;;;;;;;;;;2098667;27;99948;-17
2021/07/23 06:40:43;;;;;;;;;;;;;;;;;;2099521;27;99918;-14
2021/07/23 06:41:44;;;;;;;;;;;;;;;;;;2099847;27;99854;-15
2021/07/23 06:42:45;;;;;;;;;;;;;;;;;;2098727;27;99901;-17
2021/07/23 06:43:45;;;;;;;;;;;;;;;;;;2099197;27;100024;-16
2021/07/23 06:44:47;;;;;;;;;;;;;;;;;;2099694;27;99981;-15
2021/07/23 06:45:51;;;;;;;;;;;;;;;;;;2099573;27;99945;-14
2021/07/23 06:46:52;;;;;;;;;;;;;;;;;;2099790;27;99787;-14
2021/07/23 06:47:53;;;;;;;;;;;;;;;;;;2099240;27;99931;-17
2021/07/23 06:48:54;;;;;;;;;;;;;;;;;;2098953;27;100237;-17
2021/07/23 06:49:54;;;;;;;;;;;;;;;;;;2099415;27;99892;-14
2021/07/23 06:50:55;;;;;;;;;;;;;;;;;;2098855;27;99904;-13
2021/07/23 06:51:56;;;;;;;;;;;;;;;;;;2090208;27;99909;-15
2021/07/23 06:52:57;;;;;;;;;;;;;;;;;;2089836;27;100264;-15
2021/07/23 06:53:59;;;;;;;;;;;;;;;;;;2099140;27;100359;-18
2021/07/23 06:55:00;;;;;;;;;;;;;;;;;;2098787;27;100423;-17
2021/07/23 06:56:04;;;;;;;;;;;;;;;;;;2090206;27;100012;-14
2021/07/23 06:57:05;;;;;;;;;;;;;;;;;;2090270;27;99937;-17
2021/07/23 06:58:05;;;;;;;;;;;;;;;;;;2098688;27;100129;-18
2021/07/23 06:59:06;;;;;;;;;;;;;;;;;;2099517;27;99862;-18
2021/07/23 07:00:07;;;;;;;;;;;;;;;;;;2099303;27;99873;-16
2021/07/23 07:01:08;;;;;;;;;;;;;;;;;;2098748;27;100380;-17
2021/07/23 07:02:08;;;;;;;;;;;;;;;;;;2089612;27;100052;-15
2021/07/23 07:03:09;;;;;;;;;;;;;;;;;;2098903;27;100070;-16
2021/07/23 07:04:11;;;;;;;;;;;;;;;;;;2099772;27;99940;-15
2021/07/23 07:05:12;;;;;;;;;;;;;;;;;;2099032;27;99973;-13